sensor_id;sensor_type;location;lat;lon;timestamp;pressure;altitude;pressure_sealevel;temperature;humidity
46267;BME280;31998;48.798;15.066;2023-01-10T00:01:55;94905.44;;;3.79;100.00
46267;BME280;31998;48.798;15.066;2023-01-10T00:04:21;94905.44;;;3.74;100.00
46267;BME280;31998;48.798;15.066;2023-01-10T00:06:47;94917.66;;;3.75;100.00
46267;BME280;31998;48.798;15.066;2023-01-10T00:09:12;94926.44;;;3.75;100.00
46267;BME280;31998;48.798;15.066;2023-01-10T00:11:38;94922.47;;;3.73;100.00
46267;BME280;31998;48.798;15.066;2023-01-10T00:14:22;94931.50;;;3.72;100.00
46267;BME280;31998;48.798;15.066;2023-01-10T00:16:47;94919.25;;;3.71;100.00
46267;BME280;31998;48.798;15.066;2023-01-10T00:19:13;94923.53;;;3.72;100.00
46267;BME280;31998;48.798;15.066;2023-01-10T00:21:38;94931.50;;;3.67;100.00
46267;BME280;31998;48.798;15.066;2023-01-10T00:24:04;94928.28;;;3.65;100.00
46267;BME280;31998;48.798;15.066;2023-01-10T00:26:41;94927.78;;;3.68;100.00
46267;BME280;31998;48.798;15.066;2023-01-10T00:29:07;94936.28;;;3.75;100.00
46267;BME280;31998;48.798;15.066;2023-01-10T00:31:32;94934.97;;;3.72;100.00
46267;BME280;31998;48.798;15.066;2023-01-10T00:33:58;94944.81;;;3.72;100.00
46267;BME280;31998;48.798;15.066;2023-01-10T00:36:23;94940.00;;;3.69;100.00
46267;BME280;31998;48.798;15.066;2023-01-10T00:38:48;94942.41;;;3.70;100.00
46267;BME280;31998;48.798;15.066;2023-01-10T00:41:14;94950.38;;;3.70;100.00
46267;BME280;31998;48.798;15.066;2023-01-10T00:43:58;94954.38;;;3.68;100.00
46267;BME280;31998;48.798;15.066;2023-01-10T00:46:25;94947.47;;;3.67;100.00
46267;BME280;31998;48.798;15.066;2023-01-10T00:48:50;94953.84;;;3.61;100.00
46267;BME280;31998;48.798;15.066;2023-01-10T00:51:17;94963.41;;;3.62;100.00
46267;BME280;31998;48.798;15.066;2023-01-10T00:53:42;94975.66;;;3.63;100.00
46267;BME280;31998;48.798;15.066;2023-01-10T00:56:07;94969.00;;;3.60;100.00
46267;BME280;31998;48.798;15.066;2023-01-10T00:58:33;94978.84;;;3.65;100.00
46267;BME280;31998;48.798;15.066;2023-01-10T01:00:58;94990.53;;;3.64;100.00
46267;BME280;31998;48.798;15.066;2023-01-10T01:03:24;94986.53;;;3.56;100.00
46267;BME280;31998;48.798;15.066;2023-01-10T01:05:49;94991.63;;;3.63;100.00
46267;BME280;31998;48.798;15.066;2023-01-10T01:08:16;94998.00;;;3.67;100.00
46267;BME280;31998;48.798;15.066;2023-01-10T01:10:41;95004.41;;;3.66;100.00
46267;BME280;31998;48.798;15.066;2023-01-10T01:13:14;95000.13;;;3.60;100.00
46267;BME280;31998;48.798;15.066;2023-01-10T01:15:39;95007.56;;;3.58;100.00
46267;BME280;31998;48.798;15.066;2023-01-10T01:18:05;95014.50;;;3.59;100.00
46267;BME280;31998;48.798;15.066;2023-01-10T01:20:31;95028.84;;;3.58;100.00
46267;BME280;31998;48.798;15.066;2023-01-10T01:22:57;95033.91;;;3.59;100.00
46267;BME280;31998;48.798;15.066;2023-01-10T01:25:22;95034.69;;;3.54;100.00
46267;BME280;31998;48.798;15.066;2023-01-10T01:27:47;95046.94;;;3.61;100.00
46267;BME280;31998;48.798;15.066;2023-01-10T01:30:14;95046.41;;;3.64;100.00
46267;BME280;31998;48.798;15.066;2023-01-10T01:32:39;95041.09;;;3.59;100.00
46267;BME280;31998;48.798;15.066;2023-01-10T01:35:06;95043.22;;;3.57;100.00
46267;BME280;31998;48.798;15.066;2023-01-10T01:37:32;95053.06;;;3.61;100.00
46267;BME280;31998;48.798;15.066;2023-01-10T01:39:58;95044.03;;;3.62;100.00
46267;BME280;31998;48.798;15.066;2023-01-10T01:42:26;95054.97;;;3.66;100.00
46267;BME280;31998;48.798;15.066;2023-01-10T01:47:35;95046.97;;;3.71;100.00
46267;BME280;31998;48.798;15.066;2023-01-10T01:50:03;95061.88;;;3.67;100.00
46267;BME280;31998;48.798;15.066;2023-01-10T01:52:32;95057.84;;;3.64;100.00
46267;BME280;31998;48.798;15.066;2023-01-10T01:55:00;95071.47;;;3.73;100.00
46267;BME280;31998;48.798;15.066;2023-01-10T01:57:28;95077.59;;;3.73;100.00
46267;BME280;31998;48.798;15.066;2023-01-10T01:59:55;95083.19;;;3.72;100.00
46267;BME280;31998;48.798;15.066;2023-01-10T02:05:08;95083.72;;;3.74;100.00
46267;BME280;31998;48.798;15.066;2023-01-10T02:07:39;95083.72;;;3.74;100.00
46267;BME280;31998;48.798;15.066;2023-01-10T02:10:16;95094.63;;;3.77;100.00
46267;BME280;31998;48.798;15.066;2023-01-10T02:12:44;95096.47;;;3.77;100.00
46267;BME280;31998;48.798;15.066;2023-01-10T02:15:11;95085.84;;;3.72;100.00
46267;BME280;31998;48.798;15.066;2023-01-10T02:17:37;95107.91;;;3.77;100.00
46267;BME280;31998;48.798;15.066;2023-01-10T02:20:06;95087.69;;;3.76;100.00
46267;BME280;31998;48.798;15.066;2023-01-10T02:34:09;95102.41;;;3.94;100.00
46267;BME280;31998;48.798;15.066;2023-01-10T02:42:08;95102.94;;;3.96;100.00
46267;BME280;31998;48.798;15.066;2023-01-10T02:47:34;95102.94;;;3.91;100.00
46267;BME280;31998;48.798;15.066;2023-01-10T02:52:45;95108.25;;;3.96;100.00
46267;BME280;31998;48.798;15.066;2023-01-10T02:55:10;95111.72;;;3.97;100.00
46267;BME280;31998;48.798;15.066;2023-01-10T02:57:55;95121.31;;;3.98;100.00
46267;BME280;31998;48.798;15.066;2023-01-10T03:00:38;95118.91;;;3.91;100.00
46267;BME280;31998;48.798;15.066;2023-01-10T03:03:32;95126.38;;;3.99;100.00
46267;BME280;31998;48.798;15.066;2023-01-10T03:09:05;95130.63;;;3.95;100.00
46267;BME280;31998;48.798;15.066;2023-01-10T03:11:35;95136.47;;;3.97;100.00
46267;BME280;31998;48.798;15.066;2023-01-10T03:14:09;95147.94;;;3.98;100.00
46267;BME280;31998;48.798;15.066;2023-01-10T03:16:37;95144.97;;;3.89;100.00
46267;BME280;31998;48.798;15.066;2023-01-10T03:19:11;95153.28;;;3.98;100.00
46267;BME280;31998;48.798;15.066;2023-01-10T03:21:40;95159.91;;;3.95;100.00
46267;BME280;31998;48.798;15.066;2023-01-10T03:24:16;95172.34;;;3.85;100.00
46267;BME280;31998;48.798;15.066;2023-01-10T03:27:00;95163.78;;;3.67;100.00
46267;BME280;31998;48.798;15.066;2023-01-10T03:29:33;95186.66;;;3.68;100.00
46267;BME280;31998;48.798;15.066;2023-01-10T03:32:03;95190.34;;;3.62;100.00
46267;BME280;31998;48.798;15.066;2023-01-10T03:34:30;95194.06;;;3.61;100.00
46267;BME280;31998;48.798;15.066;2023-01-10T03:37:16;95203.88;;;3.56;100.00
46267;BME280;31998;48.798;15.066;2023-01-10T03:42:22;95209.22;;;3.56;100.00
46267;BME280;31998;48.798;15.066;2023-01-10T03:45:10;95220.13;;;3.54;100.00
46267;BME280;31998;48.798;15.066;2023-01-10T03:47:38;95233.16;;;3.56;100.00
46267;BME280;31998;48.798;15.066;2023-01-10T03:50:14;95235.81;;;3.56;100.00
46267;BME280;31998;48.798;15.066;2023-01-10T03:52:42;95242.19;;;3.54;100.00
46267;BME280;31998;48.798;15.066;2023-01-10T03:55:14;95239.53;;;3.54;100.00
46267;BME280;31998;48.798;15.066;2023-01-10T03:57:41;95246.44;;;3.56;100.00
46267;BME280;31998;48.798;15.066;2023-01-10T04:00:08;95243.25;;;3.53;100.00
46267;BME280;31998;48.798;15.066;2023-01-10T04:02:33;95250.16;;;3.54;100.00
46267;BME280;31998;48.798;15.066;2023-01-10T04:04:59;95244.81;;;3.49;100.00
46267;BME280;31998;48.798;15.066;2023-01-10T04:07:25;95245.34;;;3.46;100.00
46267;BME280;31998;48.798;15.066;2023-01-10T04:09:50;95257.63;;;3.52;100.00
46267;BME280;31998;48.798;15.066;2023-01-10T04:12:16;95258.66;;;3.51;100.00
46267;BME280;31998;48.798;15.066;2023-01-10T04:14:42;95251.69;;;3.45;100.00
46267;BME280;31998;48.798;15.066;2023-01-10T04:17:10;95255.41;;;3.44;100.00
46267;BME280;31998;48.798;15.066;2023-01-10T04:19:35;95259.13;;;3.43;100.00
46267;BME280;31998;48.798;15.066;2023-01-10T04:22:00;95250.63;;;3.41;100.00
46267;BME280;31998;48.798;15.066;2023-01-10T04:24:26;95244.72;;;3.34;100.00
46267;BME280;31998;48.798;15.066;2023-01-10T04:26:51;95250.31;;;3.38;100.00
46267;BME280;31998;48.798;15.066;2023-01-10T04:29:16;95250.31;;;3.38;100.00
46267;BME280;31998;48.798;15.066;2023-01-10T04:31:42;95262.53;;;3.39;100.00
46267;BME280;31998;48.798;15.066;2023-01-10T04:34:08;95280.63;;;3.37;100.00
46267;BME280;31998;48.798;15.066;2023-01-10T04:36:34;95269.44;;;3.35;100.00
46267;BME280;31998;48.798;15.066;2023-01-10T04:39:00;95276.09;;;3.37;100.00
46267;BME280;31998;48.798;15.066;2023-01-10T04:41:25;95286.47;;;3.34;100.00
46267;BME280;31998;48.798;15.066;2023-01-10T04:43:51;95290.41;;;3.31;100.00
46267;BME280;31998;48.798;15.066;2023-01-10T04:46:16;95295.72;;;3.26;100.00
46267;BME280;31998;48.798;15.066;2023-01-10T04:48:42;95305.84;;;3.29;100.00
46267;BME280;31998;48.798;15.066;2023-01-10T04:51:07;95315.94;;;3.32;100.00
46267;BME280;31998;48.798;15.066;2023-01-10T04:53:32;95307.94;;;3.27;100.00
46267;BME280;31998;48.798;15.066;2023-01-10T04:56:05;95318.16;;;3.40;100.00
46267;BME280;31998;48.798;15.066;2023-01-10T04:58:33;95327.50;;;3.43;100.00
46267;BME280;31998;48.798;15.066;2023-01-10T05:00:58;95321.88;;;3.39;100.00
46267;BME280;31998;48.798;15.066;2023-01-10T05:03:24;95323.44;;;3.35;100.00
46267;BME280;31998;48.798;15.066;2023-01-10T05:05:49;95337.31;;;3.42;100.00
46267;BME280;31998;48.798;15.066;2023-01-10T05:08:14;95343.75;;;3.46;100.00
46267;BME280;31998;48.798;15.066;2023-01-10T05:10:40;95346.09;;;3.43;100.00
46267;BME280;31998;48.798;15.066;2023-01-10T05:13:05;95355.47;;;3.50;100.00
46267;BME280;31998;48.798;15.066;2023-01-10T05:15:30;95363.50;;;3.56;100.00
46267;BME280;31998;48.798;15.066;2023-01-10T05:17:57;95357.69;;;3.59;100.00
46267;BME280;31998;48.798;15.066;2023-01-10T05:20:23;95359.50;;;3.53;100.00
46267;BME280;31998;48.798;15.066;2023-01-10T05:22:48;95373.03;;;3.51;100.00
46267;BME280;31998;48.798;15.066;2023-01-10T05:25:14;95385.84;;;3.54;100.00
46267;BME280;31998;48.798;15.066;2023-01-10T05:27:40;95385.84;;;3.54;100.00
46267;BME280;31998;48.798;15.066;2023-01-10T05:30:11;95391.22;;;3.60;100.00
46267;BME280;31998;48.798;15.066;2023-01-10T05:32:38;95392.28;;;3.59;100.00
46267;BME280;31998;48.798;15.066;2023-01-10T05:35:03;95399.75;;;3.62;100.00
46267;BME280;31998;48.798;15.066;2023-01-10T05:37:29;95397.59;;;3.59;100.00
46267;BME280;31998;48.798;15.066;2023-01-10T05:39:54;95406.66;;;3.63;100.00
46267;BME280;31998;48.798;15.066;2023-01-10T05:42:20;95403.47;;;3.61;100.00
46267;BME280;31998;48.798;15.066;2023-01-10T05:44:45;95416.22;;;3.59;100.00
46267;BME280;31998;48.798;15.066;2023-01-10T05:47:10;95415.72;;;3.62;100.00
46267;BME280;31998;48.798;15.066;2023-01-10T05:49:36;95417.31;;;3.63;100.00
46267;BME280;31998;48.798;15.066;2023-01-10T05:52:02;95428.47;;;3.60;100.00
46267;BME280;31998;48.798;15.066;2023-01-10T05:54:28;95431.38;;;3.58;100.00
46267;BME280;31998;48.798;15.066;2023-01-10T05:56:54;95433.22;;;3.58;100.00
46267;BME280;31998;48.798;15.066;2023-01-10T05:59:19;95433.78;;;3.60;100.00
46267;BME280;31998;48.798;15.066;2023-01-10T06:01:44;95439.34;;;3.58;100.00
46267;BME280;31998;48.798;15.066;2023-01-10T06:04:10;95447.66;;;3.62;100.00
46267;BME280;31998;48.798;15.066;2023-01-10T06:06:35;95446.53;;;3.58;100.00
46267;BME280;31998;48.798;15.066;2023-01-10T06:09:00;95456.38;;;3.57;100.00
46267;BME280;31998;48.798;15.066;2023-01-10T06:11:26;95466.31;;;3.67;100.00
46267;BME280;31998;48.798;15.066;2023-01-10T06:13:57;95461.53;;;3.69;100.00
46267;BME280;31998;48.798;15.066;2023-01-10T06:16:23;95473.72;;;3.65;100.00
46267;BME280;31998;48.798;15.066;2023-01-10T06:18:49;95467.94;;;3.68;100.00
46267;BME280;31998;48.798;15.066;2023-01-10T06:21:15;95477.78;;;3.67;100.00
46267;BME280;31998;48.798;15.066;2023-01-10T06:23:40;95478.56;;;3.68;100.00
46267;BME280;31998;48.798;15.066;2023-01-10T06:26:06;95483.88;;;3.68;100.00
46267;BME280;31998;48.798;15.066;2023-01-10T06:28:31;95490.81;;;3.69;100.00
46267;BME280;31998;48.798;15.066;2023-01-10T06:30:56;95496.13;;;3.69;100.00
46267;BME280;31998;48.798;15.066;2023-01-10T06:33:22;95506.25;;;3.67;100.00
46267;BME280;31998;48.798;15.066;2023-01-10T06:35:47;95506.97;;;3.62;100.00
46267;BME280;31998;48.798;15.066;2023-01-10T06:38:13;95499.75;;;3.58;100.00
46267;BME280;31998;48.798;15.066;2023-01-10T06:40:39;95521.63;;;3.65;100.00
46267;BME280;31998;48.798;15.066;2023-01-10T06:43:04;95524.88;;;3.67;100.00
46267;BME280;31998;48.798;15.066;2023-01-10T06:45:30;95540.50;;;3.63;100.00
46267;BME280;31998;48.798;15.066;2023-01-10T06:47:56;95533.34;;;3.64;100.00
46267;BME280;31998;48.798;15.066;2023-01-10T06:50:21;95534.75;;;3.71;100.00
46267;BME280;31998;48.798;15.066;2023-01-10T06:53:00;95536.56;;;3.66;100.00
46267;BME280;31998;48.798;15.066;2023-01-10T06:55:27;95545.34;;;3.66;100.00
46267;BME280;31998;48.798;15.066;2023-01-10T06:58:00;95540.78;;;3.62;100.00
46267;BME280;31998;48.798;15.066;2023-01-10T07:00:27;95560.53;;;3.66;100.00
46267;BME280;31998;48.798;15.066;2023-01-10T07:03:01;95550.88;;;3.60;100.00
46267;BME280;31998;48.798;15.066;2023-01-10T07:05:27;95557.78;;;3.61;100.00
46267;BME280;31998;48.798;15.066;2023-01-10T07:07:53;95575.03;;;3.58;100.00
46267;BME280;31998;48.798;15.066;2023-01-10T07:10:19;95559.25;;;3.51;100.00
46267;BME280;31998;48.798;15.066;2023-01-10T07:12:44;95574.81;;;3.60;100.00
46267;BME280;31998;48.798;15.066;2023-01-10T07:15:10;95581.19;;;3.59;100.00
46267;BME280;31998;48.798;15.066;2023-01-10T07:17:35;95576.88;;;3.52;100.00
46267;BME280;31998;48.798;15.066;2023-01-10T07:20:01;95596.66;;;3.62;100.00
46267;BME280;31998;48.798;15.066;2023-01-10T07:22:26;95607.28;;;3.62;100.00
46267;BME280;31998;48.798;15.066;2023-01-10T07:24:51;95604.97;;;3.65;100.00
46267;BME280;31998;48.798;15.066;2023-01-10T07:27:18;95611.63;;;3.68;100.00
46267;BME280;31998;48.798;15.066;2023-01-10T07:29:44;95614.22;;;3.63;100.00
46267;BME280;31998;48.798;15.066;2023-01-10T07:32:09;95608.41;;;3.66;100.00
46267;BME280;31998;48.798;15.066;2023-01-10T07:34:34;95602.34;;;3.70;100.00
46267;BME280;31998;48.798;15.066;2023-01-10T07:37:00;95603.72;;;3.73;100.00
46267;BME280;31998;48.798;15.066;2023-01-10T07:39:25;95605.84;;;3.76;100.00
46267;BME280;31998;48.798;15.066;2023-01-10T07:41:50;95607.44;;;3.72;100.00
46267;BME280;31998;48.798;15.066;2023-01-10T07:44:17;95616.56;;;3.81;100.00
46267;BME280;31998;48.798;15.066;2023-01-10T07:46:42;95609.50;;;3.70;100.00
46267;BME280;31998;48.798;15.066;2023-01-10T07:49:08;95623.50;;;3.82;100.00
46267;BME280;31998;48.798;15.066;2023-01-10T07:51:34;95616.81;;;3.79;100.00
46267;BME280;31998;48.798;15.066;2023-01-10T07:53:59;95623.44;;;3.77;100.00
46267;BME280;31998;48.798;15.066;2023-01-10T07:56:25;95637.88;;;3.81;100.00
46267;BME280;31998;48.798;15.066;2023-01-10T07:58:50;95639.53;;;3.87;100.00
46267;BME280;31998;48.798;15.066;2023-01-10T08:01:16;95649.06;;;3.83;100.00
46267;BME280;31998;48.798;15.066;2023-01-10T08:03:41;95653.31;;;3.84;100.00
46267;BME280;31998;48.798;15.066;2023-01-10T08:06:08;95654.44;;;3.88;100.00
46267;BME280;31998;48.798;15.066;2023-01-10T08:08:35;95662.69;;;3.87;100.00
46267;BME280;31998;48.798;15.066;2023-01-10T08:11:01;95651.53;;;3.90;100.00
46267;BME280;31998;48.798;15.066;2023-01-10T08:13:28;95669.13;;;3.91;100.00
46267;BME280;31998;48.798;15.066;2023-01-10T08:15:53;95672.22;;;3.83;100.00
46267;BME280;31998;48.798;15.066;2023-01-10T08:18:20;95676.44;;;3.78;100.00
46267;BME280;31998;48.798;15.066;2023-01-10T08:20:48;95681.06;;;3.88;100.00
46267;BME280;31998;48.798;15.066;2023-01-10T08:23:13;95685.84;;;3.86;100.00
46267;BME280;31998;48.798;15.066;2023-01-10T08:25:39;95684.78;;;3.87;100.00
46267;BME280;31998;48.798;15.066;2023-01-10T08:28:04;95690.13;;;3.87;100.00
46267;BME280;31998;48.798;15.066;2023-01-10T08:30:30;95689.59;;;3.90;100.00
46267;BME280;31998;48.798;15.066;2023-01-10T08:32:55;95695.19;;;3.89;100.00
46267;BME280;31998;48.798;15.066;2023-01-10T08:35:21;95708.81;;;3.92;100.00
46267;BME280;31998;48.798;15.066;2023-01-10T08:37:46;95706.47;;;3.96;100.00
46267;BME280;31998;48.798;15.066;2023-01-10T08:40:12;95717.34;;;3.94;100.00
46267;BME280;31998;48.798;15.066;2023-01-10T08:42:37;95716.81;;;3.92;100.00
46267;BME280;31998;48.798;15.066;2023-01-10T08:45:03;95704.56;;;3.91;100.00
46267;BME280;31998;48.798;15.066;2023-01-10T08:47:29;95708.25;;;3.90;100.00
46267;BME280;31998;48.798;15.066;2023-01-10T08:49:54;95706.47;;;3.96;100.00
46267;BME280;31998;48.798;15.066;2023-01-10T08:52:19;95713.97;;;3.99;100.00
46267;BME280;31998;48.798;15.066;2023-01-10T08:54:45;95716.66;;;4.04;100.00
46267;BME280;31998;48.798;15.066;2023-01-10T08:57:10;95720.09;;;3.99;100.00
46267;BME280;31998;48.798;15.066;2023-01-10T08:59:36;95729.13;;;3.98;100.00
46267;BME280;31998;48.798;15.066;2023-01-10T09:02:02;95730.75;;;3.99;100.00
46267;BME280;31998;48.798;15.066;2023-01-10T09:04:29;95737.66;;;4.00;100.00
46267;BME280;31998;48.798;15.066;2023-01-10T09:06:55;95720.09;;;3.99;100.00
46267;BME280;31998;48.798;15.066;2023-01-10T09:09:20;95738.28;;;4.07;100.00
46267;BME280;31998;48.798;15.066;2023-01-10T09:11:46;95735.19;;;4.16;100.00
46267;BME280;31998;48.798;15.066;2023-01-10T09:14:11;95736.31;;;4.20;100.00
46267;BME280;31998;48.798;15.066;2023-01-10T09:16:37;95735.78;;;4.18;100.00
46267;BME280;31998;48.798;15.066;2023-01-10T09:19:02;95741.13;;;4.23;100.00
46267;BME280;31998;48.798;15.066;2023-01-10T09:21:28;95748.84;;;4.19;100.00
46267;BME280;31998;48.798;15.066;2023-01-10T09:23:53;95753.91;;;4.21;100.00
46267;BME280;31998;48.798;15.066;2023-01-10T09:26:18;95744.38;;;4.25;100.00
46267;BME280;31998;48.798;15.066;2023-01-10T09:28:44;95752.13;;;4.26;100.00
46267;BME280;31998;48.798;15.066;2023-01-10T09:31:10;95758.31;;;4.32;100.00
46267;BME280;31998;48.798;15.066;2023-01-10T09:33:36;95759.84;;;4.28;100.00
46267;BME280;31998;48.798;15.066;2023-01-10T09:36:02;95762.59;;;4.33;100.00
46267;BME280;31998;48.798;15.066;2023-01-10T09:38:27;95776.44;;;4.35;100.00
46267;BME280;31998;48.798;15.066;2023-01-10T09:40:56;95779.19;;;4.40;100.00
46267;BME280;31998;48.798;15.066;2023-01-10T09:48:50;95782.91;;;4.39;100.00
46267;BME280;31998;48.798;15.066;2023-01-10T09:51:41;95796.78;;;4.41;100.00
46267;BME280;31998;48.798;15.066;2023-01-10T09:54:15;95793.75;;;4.32;100.00
46267;BME280;31998;48.798;15.066;2023-01-10T09:56:43;95814.72;;;4.29;100.00
46267;BME280;31998;48.798;15.066;2023-01-10T09:59:16;95814.63;;;4.41;100.00
46267;BME280;31998;48.798;15.066;2023-01-10T10:01:42;95808.75;;;4.39;100.00
46267;BME280;31998;48.798;15.066;2023-01-10T10:06:50;95824.97;;;4.37;100.00
46267;BME280;31998;48.798;15.066;2023-01-10T10:09:20;95801.75;;;4.32;100.00
46267;BME280;31998;48.798;15.066;2023-01-10T10:15:08;95818.59;;;4.38;100.00
46267;BME280;31998;48.798;15.066;2023-01-10T10:31:56;95829.13;;;4.72;100.00
46267;BME280;31998;48.798;15.066;2023-01-10T10:34:40;95818.56;;;4.82;100.00
46267;BME280;31998;48.798;15.066;2023-01-10T10:37:09;95820.75;;;4.85;100.00
46267;BME280;31998;48.798;15.066;2023-01-10T10:39:47;95830.88;;;4.83;100.00
46267;BME280;31998;48.798;15.066;2023-01-10T10:42:16;95821.28;;;4.87;100.00
46267;BME280;31998;48.798;15.066;2023-01-10T10:44:50;95832.53;;;4.89;100.00
46267;BME280;31998;48.798;15.066;2023-01-10T10:47:19;95816.28;;;4.90;100.00
46267;BME280;31998;48.798;15.066;2023-01-10T10:49:53;95823.75;;;4.94;100.00
46267;BME280;31998;48.798;15.066;2023-01-10T10:52:26;95814.53;;;4.79;100.00
46267;BME280;31998;48.798;15.066;2023-01-10T10:54:54;95826.53;;;4.77;100.00
46267;BME280;31998;48.798;15.066;2023-01-10T10:57:23;95833.75;;;4.81;100.00
46267;BME280;31998;48.798;15.066;2023-01-10T10:59:49;95836.50;;;4.86;100.00
46267;BME280;31998;48.798;15.066;2023-01-10T11:02:26;95832.47;;;4.84;100.00
46267;BME280;31998;48.798;15.066;2023-01-10T11:04:56;95825.41;;;4.73;100.00
46267;BME280;31998;48.798;15.066;2023-01-10T11:07:23;95821.28;;;4.87;100.00
46267;BME280;31998;48.798;15.066;2023-01-10T11:09:51;95833.09;;;4.91;100.00
46267;BME280;31998;48.798;15.066;2023-01-10T11:12:53;95843.13;;;4.84;100.00
46267;BME280;31998;48.798;15.066;2023-01-10T11:15:35;95838.28;;;4.81;100.00
46267;BME280;31998;48.798;15.066;2023-01-10T11:18:08;95834.34;;;4.83;100.00
46267;BME280;31998;48.798;15.066;2023-01-10T11:20:35;95842.13;;;4.90;100.00
46267;BME280;31998;48.798;15.066;2023-01-10T11:23:01;95845.28;;;4.87;100.00
46267;BME280;31998;48.798;15.066;2023-01-10T11:25:27;95831.97;;;4.87;100.00
46267;BME280;31998;48.798;15.066;2023-01-10T11:27:55;95844.56;;;4.92;100.00
46267;BME280;31998;48.798;15.066;2023-01-10T11:30:23;95852.19;;;4.83;100.00
46267;BME280;31998;48.798;15.066;2023-01-10T11:33:04;95852.75;;;4.85;100.00
46267;BME280;31998;48.798;15.066;2023-01-10T11:35:36;95841.16;;;4.74;100.00
46267;BME280;31998;48.798;15.066;2023-01-10T11:46:03;95859.13;;;4.84;100.00
46267;BME280;31998;48.798;15.066;2023-01-10T11:51:15;95865.81;;;4.86;100.00
46267;BME280;31998;48.798;15.066;2023-01-10T11:53:42;95855.41;;;4.85;100.00
46267;BME280;31998;48.798;15.066;2023-01-10T11:56:13;95855.47;;;4.90;100.00
46267;BME280;31998;48.798;15.066;2023-01-10T11:58:46;95854.69;;;4.95;100.00
46267;BME280;31998;48.798;15.066;2023-01-10T12:01:31;95849.09;;;4.91;100.00
46267;BME280;31998;48.798;15.066;2023-01-10T12:03:59;95864.56;;;4.94;100.00
46267;BME280;31998;48.798;15.066;2023-01-10T12:06:25;95860.84;;;4.95;100.00
46267;BME280;31998;48.798;15.066;2023-01-10T12:08:51;95853.59;;;4.90;100.00
46267;BME280;31998;48.798;15.066;2023-01-10T12:11:24;95864.34;;;4.96;100.00
46267;BME280;31998;48.798;15.066;2023-01-10T12:13:54;95870.41;;;4.91;100.00
46267;BME280;31998;48.798;15.066;2023-01-10T12:16:27;95864.56;;;4.94;100.00
46267;BME280;31998;48.798;15.066;2023-01-10T12:18:56;95859.13;;;4.84;100.00
46267;BME280;31998;48.798;15.066;2023-01-10T12:21:39;95868.63;;;4.97;100.00
46267;BME280;31998;48.798;15.066;2023-01-10T12:24:13;95873.16;;;4.96;100.00
46267;BME280;31998;48.798;15.066;2023-01-10T12:26:40;95878.78;;;5.00;100.00
46267;BME280;31998;48.798;15.066;2023-01-10T12:29:16;95888.44;;;5.06;100.00
46267;BME280;31998;48.798;15.066;2023-01-10T12:31:41;95882.81;;;5.02;100.00
46267;BME280;31998;48.798;15.066;2023-01-10T12:34:19;95891.00;;;4.96;100.00
46267;BME280;31998;48.798;15.066;2023-01-10T12:37:43;95888.63;;;4.99;100.00
46267;BME280;31998;48.798;15.066;2023-01-10T12:39:45;95904.19;;;5.07;100.00
46267;BME280;31998;48.798;15.066;2023-01-10T12:42:18;95900.97;;;5.05;100.00
46267;BME280;31998;48.798;15.066;2023-01-10T12:45:11;95901.41;;;4.97;100.00
46267;BME280;31998;48.798;15.066;2023-01-10T12:50:19;95914.75;;;4.97;100.00
46267;BME280;31998;48.798;15.066;2023-01-10T12:53:10;95907.25;;;4.94;100.00
46267;BME280;31998;48.798;15.066;2023-01-10T12:55:43;95906.44;;;4.94;100.00
46267;BME280;31998;48.798;15.066;2023-01-10T12:58:16;95906.75;;;4.97;100.00
46267;BME280;31998;48.798;15.066;2023-01-10T13:00:51;95915.25;;;4.94;100.00
46267;BME280;31998;48.798;15.066;2023-01-10T13:03:25;95900.75;;;4.85;100.00
46267;BME280;31998;48.798;15.066;2023-01-10T13:05:52;95916.81;;;4.90;100.00
46267;BME280;31998;48.798;15.066;2023-01-10T13:08:23;95912.56;;;4.94;100.00
46267;BME280;31998;48.798;15.066;2023-01-10T13:10:52;95924.47;;;4.86;100.00
46267;BME280;31998;48.798;15.066;2023-01-10T13:14:11;95934.59;;;4.84;100.00
46267;BME280;31998;48.798;15.066;2023-01-10T13:16:32;95941.22;;;4.82;100.00
46267;BME280;31998;48.798;15.066;2023-01-10T13:21:37;95924.66;;;4.80;100.00
46267;BME280;31998;48.798;15.066;2023-01-10T13:24:05;95948.19;;;4.83;100.00
46267;BME280;31998;48.798;15.066;2023-01-10T13:27:03;95953.44;;;4.78;100.00
46267;BME280;31998;48.798;15.066;2023-01-10T13:29:42;95960.94;;;4.81;100.00
46267;BME280;31998;48.798;15.066;2023-01-10T13:32:21;95959.88;;;4.82;100.00
46267;BME280;31998;48.798;15.066;2023-01-10T13:34:48;95956.09;;;4.78;100.00
46267;BME280;31998;48.798;15.066;2023-01-10T13:37:26;95960.69;;;4.82;100.00
46267;BME280;31998;48.798;15.066;2023-01-10T13:39:56;95962.69;;;4.92;100.00
46267;BME280;31998;48.798;15.066;2023-01-10T13:42:31;95956.81;;;4.90;100.00
46267;BME280;31998;48.798;15.066;2023-01-10T13:45:22;95975.13;;;5.03;100.00
46267;BME280;31998;48.798;15.066;2023-01-10T13:52:47;95989.44;;;4.97;100.00
46267;BME280;31998;48.798;15.066;2023-01-10T13:56:27;96000.47;;;5.06;100.00
46267;BME280;31998;48.798;15.066;2023-01-10T14:00:52;95993.81;;;5.08;100.00
46267;BME280;31998;48.798;15.066;2023-01-10T14:06:19;96001.72;;;4.98;100.00
46267;BME280;31998;48.798;15.066;2023-01-10T14:16:47;95994.84;;;5.02;100.00
46267;BME280;31998;48.798;15.066;2023-01-10T14:19:29;96004.94;;;5.00;100.00
46267;BME280;31998;48.798;15.066;2023-01-10T14:21:58;95996.94;;;5.00;100.00
46267;BME280;31998;48.798;15.066;2023-01-10T14:24:33;95993.09;;;4.91;100.00
46267;BME280;31998;48.798;15.066;2023-01-10T14:27:02;95999.94;;;4.87;100.00
46267;BME280;31998;48.798;15.066;2023-01-10T14:29:31;96002.13;;;4.90;100.00
46267;BME280;31998;48.798;15.066;2023-01-10T14:31:59;96013.88;;;4.89;100.00
46267;BME280;31998;48.798;15.066;2023-01-10T14:34:30;96018.69;;;4.92;100.00